Time Latitude Longitude Accuracy (66% radius in meters) Altitude (meters) Speed (km/hour) Bearing (degrees) Battery (%) GPS flag
13:40:44 56.387650 43.737027 3.7000000476837 89 0 239.66000366211 56 1 delete
13:40:42 56.387670 43.737060 3.2999999523163 89.4 0 239.66000366211 56 1 delete
13:40:34 56.387625 43.737172 2 90.1 0 20.969999313354 56 1 delete
13:40:23 56.387625 43.737172 2.5 90.1 0 207.19999694824 56 1 delete
13:40:13 56.387625 43.737172 1.8999999761581 90.1 0 207.19999694824 56 1 delete
13:40:01 56.387625 43.737172 1.2000000476837 90.1 0 207.19999694824 56 1 delete
13:39:51 56.387625 43.737195 3.7000000476837 89.8 0 207.19999694824 56 1 delete
13:39:47 56.387635 43.737227 3.5 89.9 0 207.19999694824 56 1 delete
13:39:41 56.387592 43.737137 3.2999999523163 90 0 207.19999694824 56 1 delete
13:39:29 56.387552 43.737093 3.7000000476837 90.2 0 207.19999694824 56 1 delete
13:39:25 56.387565 43.737120 3.4000000953674 90.2 0 351.38000488281 56 1 delete
13:39:19 56.387608 43.737203 2.5999999046326 92.2 0 351.38000488281 56 1 delete
13:39:07 56.387608 43.737203 2.5 92.2 0 198.92999267578 56 1 delete
13:38:55 56.387608 43.737203 1.2000000476837 92.2 0 56.630001068115 56 1 delete
13:38:45 56.387608 43.737203 1.1000000238419 92.2 0 56.630001068115 56 1 delete
13:38:35 56.387608 43.737203 1.3999999761581 92.2 0 56.630001068115 56 1 delete
13:38:23 56.387608 43.737203 2.9000000953674 92.2 0 56.630001068115 56 1 delete
13:38:11 56.387608 43.737203 2.7000000476837 92.2 0 10.329999923706 56 1 delete
13:38:01 56.387608 43.737203 2.5 92.2 0 228.39999389648 56 1 delete
13:37:51 56.387608 43.737203 1.5 92.2 0 228.39999389648 56 1 delete
13:37:39 56.387608 43.737203 1.1000000238419 92.2 0 182.75 56 1 delete
13:37:29 56.387608 43.737203 2.0999999046326 92.2 0 182.75 56 1 delete
13:37:17 56.387608 43.737203 1.2000000476837 92.2 0 182.75 56 1 delete
13:37:07 56.387608 43.737203 1.2000000476837 92.2 0 125.59999847412 56 1 delete
13:36:55 56.387608 43.737203 2.9000000953674 92.2 0 125.59999847412 56 1 delete
13:36:45 56.387608 43.737203 2.9000000953674 92.2 0 125.59999847412 56 1 delete
13:36:34 56.387608 43.737203 2.5999999046326 92.2 0 125.59999847412 56 1 delete
13:36:23 56.387608 43.737203 1.2000000476837 92.2 0 125.59999847412 56 1 delete
13:36:12 56.387608 43.737203 1.7999999523163 92.2 0 125.59999847412 56 1 delete
13:36:01 56.387608 43.737203 2.0999999046326 92.2 0 125.59999847412 56 1 delete
13:35:51 56.387608 43.737203 1.1000000238419 92.2 0 125.59999847412 56 1 delete
13:35:39 56.387608 43.737203 1.1000000238419 92.2 0 125.59999847412 56 1 delete
13:35:29 56.387608 43.737203 3 92.2 0 199.52000427246 56 1 delete
13:35:17 56.387608 43.737203 2.7999999523163 92.2 0 199.52000427246 56 1 delete
13:35:07 56.387608 43.737203 1.7999999523163 92.2 0 54.189998626709 56 1 delete
13:34:55 56.387608 43.737203 2 92.2 0 54.189998626709 56 1 delete
13:34:45 56.387608 43.737203 1.8999999761581 92.2 0 54.189998626709 56 1 delete
13:34:33 56.387608 43.737203 1.2000000476837 92.2 0 208.55000305176 56 1 delete
13:34:21 56.387608 43.737203 1.7000000476837 92.2 0 208.55000305176 56 1 delete
13:34:09 56.387608 43.737203 2.0999999046326 92.2 0 14.869999885559 56 1 delete
13:33:59 56.387608 43.737203 2 92.2 0 138.88999938965 56 1 delete
13:33:48 56.387608 43.737203 2.5 92.2 0 138.88999938965 56 1 delete
13:33:37 56.387608 43.737203 1.6000000238419 92.2 0 138.88999938965 56 1 delete
13:33:25 56.387640 43.737178 3.4000000953674 91.5 0 324.64999389648 56 1 delete
13:33:18 56.387652 43.737167 3.5 90.9 0 323.2200012207 56 1 delete
13:33:15 56.387688 43.737092 3.5 91.5 0 323.2200012207 56 1 delete
13:33:03 56.387688 43.737092 3.7999999523163 91.5 0 323.2200012207 56 1 delete
13:32:51 56.387713 43.737082 3.5999999046326 91.5 0 323.2200012207 56 1 delete
13:32:39 56.387758 43.737095 4.1999998092651 91.9 2.066609621048 316.70999145508 56 1 delete
13:32:29 56.387688 43.737233 3.0999999046326 89.7 0 107.29000091553 56 1 delete